createdAt,value
2023-09-08T00:03:51.805Z,16.70
2023-09-08T00:08:55.535Z,16.70
2023-09-08T00:13:59.232Z,16.60
2023-09-08T00:19:02.931Z,16.50
2023-09-08T00:24:06.927Z,16.40
2023-09-08T00:29:10.538Z,16.40
2023-09-08T00:34:14.356Z,16.40
2023-09-08T00:39:18.062Z,16.30
2023-09-08T00:44:22.206Z,16.30
2023-09-08T00:49:26.211Z,16.20
2023-09-08T00:54:29.853Z,16.10
2023-09-08T00:59:34.742Z,16.10
2023-09-08T01:04:42.198Z,16.00
2023-09-08T01:09:48.517Z,16.00
2023-09-08T01:14:52.565Z,16.10
2023-09-08T01:19:59.536Z,16.10
2023-09-08T01:25:23.442Z,16.20
2023-09-08T01:30:33.866Z,16.10
2023-09-08T01:35:37.832Z,16.10
2023-09-08T01:40:41.480Z,16.00
2023-09-08T01:45:45.308Z,15.90
2023-09-08T01:50:49.082Z,15.80
2023-09-08T01:55:52.892Z,15.70
2023-09-08T02:01:01.312Z,15.70
2023-09-08T02:06:05.784Z,15.60
2023-09-08T02:11:09.652Z,15.60
2023-09-08T02:16:17.859Z,15.60
2023-09-08T02:21:23.024Z,15.50
2023-09-08T02:26:28.683Z,15.50
2023-09-08T02:31:32.331Z,15.40
2023-09-08T02:36:36.000Z,15.30
2023-09-08T02:41:40.528Z,15.30
2023-09-08T02:46:44.167Z,15.20
2023-09-08T02:51:48.376Z,15.20
2023-09-08T02:56:53.114Z,15.20
2023-09-08T03:01:56.824Z,15.10
2023-09-08T03:07:00.528Z,15.00
2023-09-08T03:12:05.907Z,15.00
2023-09-08T03:17:10.330Z,15.00
2023-09-08T03:22:14.853Z,15.00
2023-09-08T03:27:18.413Z,14.90
2023-09-08T03:32:22.196Z,15.00
2023-09-08T03:37:27.418Z,15.00
2023-09-08T03:42:32.198Z,15.00
2023-09-08T03:47:35.966Z,15.00
2023-09-08T03:52:39.795Z,15.00
2023-09-08T03:57:43.620Z,15.00
2023-09-08T04:02:47.192Z,15.00
2023-09-08T04:07:50.804Z,15.00
2023-09-08T04:12:54.540Z,15.00
2023-09-08T04:18:01.931Z,15.00
2023-09-08T04:23:05.675Z,15.00
2023-09-08T04:28:09.305Z,15.00
2023-09-08T04:33:13.764Z,14.90
2023-09-08T04:38:17.528Z,14.90
2023-09-08T04:43:21.414Z,14.90
2023-09-08T04:48:25.089Z,15.00
2023-09-08T04:53:29.118Z,15.00
2023-09-08T04:58:33.229Z,15.10
2023-09-08T05:03:37.638Z,15.20
2023-09-08T05:08:41.482Z,15.20
2023-09-08T05:13:45.172Z,15.30
2023-09-08T05:18:49.206Z,15.40
2023-09-08T05:23:52.904Z,15.60
2023-09-08T05:28:56.385Z,15.70
2023-09-08T05:34:00.123Z,15.90
2023-09-08T05:39:03.731Z,16.10
2023-09-08T05:44:07.470Z,16.30
2023-09-08T05:49:11.360Z,16.50
2023-09-08T05:54:14.834Z,16.70
2023-09-08T05:59:18.506Z,16.90
2023-09-08T06:04:22.300Z,17.10
2023-09-08T06:09:26.154Z,17.30
2023-09-08T06:14:30.821Z,17.60
2023-09-08T06:19:35.718Z,17.90
2023-09-08T06:24:39.512Z,18.10
2023-09-08T06:29:44.671Z,18.40
2023-09-08T06:34:48.384Z,18.70
2023-09-08T06:39:52.046Z,19.00
2023-09-08T06:44:55.700Z,19.30
2023-09-08T06:49:59.383Z,19.60
2023-09-08T06:55:04.116Z,20.00
2023-09-08T07:00:08.720Z,20.30
2023-09-08T07:05:12.411Z,20.50
2023-09-08T07:10:16.633Z,20.80
2023-09-08T07:15:20.400Z,21.10
2023-09-08T07:20:23.906Z,21.30
2023-09-08T07:25:27.549Z,21.60
2023-09-08T07:30:33.649Z,21.80
2023-09-08T07:35:41.728Z,22.00
2023-09-08T07:40:45.283Z,22.30
2023-09-08T07:45:48.972Z,22.50
2023-09-08T07:50:52.761Z,22.70
2023-09-08T07:56:05.635Z,22.90
2023-09-08T08:01:09.591Z,23.10
2023-09-08T08:06:13.544Z,23.30
2023-09-08T08:11:21.534Z,23.50
2023-09-08T08:16:25.716Z,23.70
2023-09-08T08:21:29.735Z,23.90
2023-09-08T08:26:34.199Z,24.00
2023-09-08T08:31:37.910Z,24.20
2023-09-08T08:36:41.836Z,24.40
2023-09-08T08:41:46.146Z,24.60
2023-09-08T08:46:51.740Z,24.80
2023-09-08T08:51:55.676Z,24.90
2023-09-08T08:57:01.014Z,25.10
2023-09-08T09:02:05.514Z,25.20
2023-09-08T09:07:09.641Z,25.30
2023-09-08T09:12:13.824Z,25.50
2023-09-08T09:17:17.570Z,25.70
2023-09-08T09:22:23.084Z,25.90
2023-09-08T09:27:27.501Z,26.00
2023-09-08T09:32:32.264Z,26.20
2023-09-08T09:37:37.100Z,26.30
2023-09-08T09:42:43.861Z,26.50
2023-09-08T09:47:47.877Z,26.70
2023-09-08T09:52:51.688Z,26.90
2023-09-08T09:58:01.911Z,27.10
2023-09-08T10:03:07.039Z,27.20
2023-09-08T10:08:10.785Z,27.30
2023-09-08T10:13:17.899Z,27.40
2023-09-08T10:18:23.218Z,27.60
2023-09-08T10:23:34.616Z,27.80
2023-09-08T10:28:39.457Z,27.90
2023-09-08T10:33:45.003Z,27.80
2023-09-08T10:38:52.051Z,27.90
2023-09-08T10:44:05.896Z,27.90
2023-09-08T10:49:11.395Z,28.10
2023-09-08T10:54:51.349Z,28.30
2023-09-08T11:00:02.571Z,28.50
2023-09-08T11:05:16.880Z,28.70
2023-09-08T11:10:20.775Z,28.90
2023-09-08T11:15:24.697Z,29.00
2023-09-08T11:20:29.127Z,29.00
2023-09-08T11:25:34.709Z,29.10
2023-09-08T11:30:38.434Z,29.40
2023-09-08T11:35:44.624Z,29.60
2023-09-08T11:40:48.570Z,29.70
2023-09-08T11:45:52.489Z,29.90
2023-09-08T11:50:56.507Z,29.90
2023-09-08T11:56:00.485Z,30.10
2023-09-08T12:01:05.747Z,30.20
2023-09-08T12:06:09.596Z,30.50
2023-09-08T12:11:13.677Z,30.60
2023-09-08T12:16:23.562Z,30.70
2023-09-08T12:21:27.610Z,30.60
2023-09-08T12:26:31.350Z,30.50
2023-09-08T12:31:35.578Z,30.30
2023-09-08T12:36:45.316Z,30.10
2023-09-08T12:41:48.975Z,29.90
2023-09-08T12:46:52.784Z,29.80
2023-09-08T12:51:56.454Z,29.70
2023-09-08T12:57:00.133Z,29.50
2023-09-08T13:02:04.735Z,29.30
2023-09-08T13:07:08.368Z,29.40
2023-09-08T13:12:14.336Z,29.30
2023-09-08T13:17:17.973Z,29.10
2023-09-08T13:22:21.922Z,29.00
2023-09-08T13:27:25.725Z,28.90
2023-09-08T13:32:30.158Z,28.90
2023-09-08T13:37:35.518Z,28.90
2023-09-08T13:42:39.394Z,28.80
2023-09-08T13:47:43.240Z,28.80
2023-09-08T13:52:47.805Z,28.90
2023-09-08T13:57:55.426Z,29.10
2023-09-08T14:03:01.163Z,29.10
2023-09-08T14:13:19.186Z,29.00
2023-09-08T14:18:22.882Z,28.90
2023-09-08T14:23:27.147Z,28.90
2023-09-08T14:28:33.253Z,28.90
2023-09-08T14:33:36.897Z,29.00
2023-09-08T14:38:40.712Z,29.20
2023-09-08T14:43:44.389Z,29.50
2023-09-08T14:48:48.075Z,29.80
2023-09-08T14:53:51.769Z,29.90
2023-09-08T14:58:55.373Z,30.10
2023-09-08T15:03:59.235Z,30.30
2023-09-08T15:09:03.151Z,30.60
2023-09-08T15:14:07.691Z,31.20
2023-09-08T15:19:11.476Z,32.10
2023-09-08T15:24:14.879Z,32.50
2023-09-08T15:29:21.222Z,32.90
2023-09-08T15:34:27.345Z,33.10
2023-09-08T15:39:31.295Z,33.40
2023-09-08T15:44:35.055Z,33.50
2023-09-08T15:49:38.702Z,33.50
2023-09-08T15:54:42.421Z,33.20
2023-09-08T15:59:46.437Z,32.90
2023-09-08T16:04:50.210Z,32.10
2023-09-08T16:09:53.901Z,31.30
2023-09-08T16:14:57.495Z,30.60
2023-09-08T16:20:01.150Z,29.90
2023-09-08T16:25:05.351Z,29.50
2023-09-08T16:30:09.535Z,29.00
2023-09-08T16:35:14.564Z,28.50
2023-09-08T16:40:18.421Z,28.00
2023-09-08T16:45:22.014Z,27.60
2023-09-08T16:50:25.561Z,27.00
2023-09-08T16:55:29.087Z,26.50
2023-09-08T17:00:32.915Z,26.00
2023-09-08T17:05:36.660Z,25.60
2023-09-08T17:10:40.404Z,25.30
2023-09-08T17:15:44.127Z,25.00
2023-09-08T17:20:47.896Z,24.70
2023-09-08T17:25:52.765Z,24.50
2023-09-08T17:30:56.491Z,24.20
2023-09-08T17:36:00.237Z,23.90
2023-09-08T17:41:03.856Z,23.60
2023-09-08T17:46:08.263Z,23.30
2023-09-08T17:51:12.289Z,23.00
2023-09-08T17:56:17.361Z,22.70
2023-09-08T18:01:21.078Z,22.50
2023-09-08T18:06:24.529Z,22.30
2023-09-08T18:11:28.212Z,22.10
2023-09-08T18:16:33.514Z,22.00
2023-09-08T18:21:38.510Z,21.90
2023-09-08T18:26:42.314Z,21.70
2023-09-08T18:31:46.109Z,21.60
2023-09-08T18:36:50.018Z,21.40
2023-09-08T18:41:53.896Z,21.20
2023-09-08T18:46:57.689Z,21.10
2023-09-08T18:52:01.424Z,21.10
2023-09-08T18:57:05.351Z,21.10
2023-09-08T19:02:09.354Z,21.10
2023-09-08T19:07:13.203Z,21.00
2023-09-08T19:12:19.959Z,21.00
2023-09-08T19:17:23.915Z,20.80
2023-09-08T19:22:27.729Z,20.70
2023-09-08T19:27:31.137Z,20.50
2023-09-08T19:32:35.733Z,20.30
2023-09-08T19:37:39.678Z,20.20
2023-09-08T19:42:43.319Z,20.00
2023-09-08T19:47:47.378Z,19.90
2023-09-08T19:52:51.146Z,19.80
2023-09-08T19:57:55.036Z,19.70
2023-09-08T20:02:59.076Z,19.60
2023-09-08T20:08:03.165Z,19.50
2023-09-08T20:13:07.082Z,19.40
2023-09-08T20:18:10.849Z,19.40
2023-09-08T20:23:14.844Z,19.30
2023-09-08T20:28:18.768Z,19.30
2023-09-08T20:33:23.720Z,19.20
2023-09-08T20:38:27.541Z,19.20
2023-09-08T20:43:31.342Z,19.10
2023-09-08T20:48:38.521Z,19.10
2023-09-08T20:53:43.301Z,19.10
2023-09-08T20:58:46.965Z,19.00
2023-09-08T21:03:50.786Z,19.00
2023-09-08T21:08:54.629Z,18.90
2023-09-08T21:13:58.336Z,18.90
2023-09-08T21:19:02.031Z,18.80
2023-09-08T21:24:06.163Z,18.80
2023-09-08T21:29:09.738Z,18.80
2023-09-08T21:34:13.403Z,18.70
2023-09-08T21:39:17.135Z,18.70
2023-09-08T21:44:21.110Z,18.60
2023-09-08T21:49:25.032Z,18.50
2023-09-08T21:54:28.778Z,18.50
2023-09-08T21:59:32.333Z,18.40
2023-09-08T22:04:35.889Z,18.30
2023-09-08T22:09:39.339Z,18.30
2023-09-08T22:14:42.958Z,18.20
2023-09-08T22:19:46.521Z,18.20
2023-09-08T22:24:50.587Z,18.10
2023-09-08T22:29:53.997Z,18.10
2023-09-08T22:34:57.863Z,18.10
2023-09-08T22:40:01.370Z,18.00
2023-09-08T22:45:06.348Z,18.00
2023-09-08T22:50:13.407Z,17.90
2023-09-08T22:55:24.442Z,17.80
2023-09-08T23:00:29.734Z,17.70
2023-09-08T23:05:33.273Z,17.70
2023-09-08T23:10:37.285Z,17.60
2023-09-08T23:15:40.807Z,17.60
2023-09-08T23:20:44.421Z,17.50
2023-09-08T23:25:50.894Z,17.50
2023-09-08T23:30:54.838Z,17.40
2023-09-08T23:35:58.505Z,17.30
2023-09-08T23:41:02.057Z,17.20
2023-09-08T23:46:06.114Z,17.10
2023-09-08T23:51:10.090Z,17.00
2023-09-08T23:56:13.505Z,17.00
